»·PEaware :: SKW5535 KOTH-KSFO

SKW5535 :: KOTH-KSFO

FLIGHT INFORMATION

Flight Status: Arrived
Operator:
SkyWest Airlines
More flights by this operator :: More flights under this callsign
Pilot: Anonymous 16342 (16342)
Aircraft: CANADAIR CL-600 CRJ-700
(CRJ7)
More flights by this aircraft type
Origin: KOTH North Bend Mun
United States
Destination: KSFO San Francisco Intl
United States
More flights between these airports :: More routes between these airports
Route: LEDGE CEC KO60C AMAKR BDEGA3
File this flight plan on PilotEdge
Remarks:
Altitude:
(Current/Filed)
33,000ft
Speed:
(Current/Filed)
463kts
Departed: 20-May-19 06:12 PM
Arrived: 20-May-19 07:19 PM
Distance/Time
Traveled:
358nm/1:07
Distance/Time
To Go:
Arrived

Flight Plot

Page will automatically refresh every two minutes.

Flight plan parsing failed; only flown route is shown


Map Options




Map Legend


Flown Route
Filed Route
Departure Airport
Arrival Airport
Navaid (VOR, NDB)
Fix

Horizontal Profiles

Position Reports

Time Latitude Longitude Heading Altitude Ground
Speed
20-May-19 17:54 43.416811 -124.249663 214 15ft 0kts
20-May-19 17:54 43.416811 -124.249663 214 15ft 0kts
20-May-19 17:56 43.416811 -124.249663 214 15ft 0kts
20-May-19 17:57 43.416811 -124.249663 214 15ft 0kts
20-May-19 17:57 43.416811 -124.249663 214 15ft 0kts
20-May-19 17:58 43.416811 -124.249663 214 15ft 0kts
20-May-19 17:59 43.416811 -124.249663 214 15ft 0kts
20-May-19 18:00 43.416810 -124.249663 214 15ft 0kts
20-May-19 18:01 43.416810 -124.249663 214 15ft 0kts
20-May-19 18:02 43.416810 -124.249663 214 15ft 0kts
20-May-19 18:03 43.416810 -124.249663 214 15ft 0kts
20-May-19 18:04 43.416810 -124.249663 214 15ft 0kts
20-May-19 18:05 43.416863 -124.249852 13 15ft 2kts
20-May-19 18:06 43.418266 -124.249015 60 15ft 30kts
20-May-19 18:07 43.420952 -124.242861 66 15ft 13kts
20-May-19 18:08 43.422389 -124.240315 304 15ft 0kts
20-May-19 18:09 43.422394 -124.240324 304 15ft 0kts
20-May-19 18:10 43.422398 -124.240333 304 15ft 0kts
20-May-19 18:11 43.413010 -124.267647 244 435ft 175kts
20-May-19 18:12 43.435250 -124.327496 333 4247ft 206kts
20-May-19 18:13 43.485090 -124.287311 62 6678ft 233kts
20-May-19 18:14 43.460276 -124.230247 192 9805ft 203kts
20-May-19 18:15 43.402593 -124.240490 177 12196ft 220kts
20-May-19 18:16 43.339574 -124.228637 177 14412ft 233kts
20-May-19 18:17 43.273774 -124.217201 177 16384ft 245kts
20-May-19 18:18 43.204224 -124.204893 178 18164ft 257kts
20-May-19 18:19 43.131108 -124.192318 179 19712ft 272kts
20-May-19 18:20 43.054187 -124.183110 185 21123ft 283kts
20-May-19 18:21 42.973583 -124.178567 186 22430ft 297kts
20-May-19 18:22 42.888641 -124.174533 189 23623ft 312kts
20-May-19 18:23 42.800197 -124.171171 191 24758ft 324kts
20-May-19 18:24 42.707959 -124.168206 192 25829ft 337kts
20-May-19 18:25 42.612430 -124.163249 193 26820ft 351kts
20-May-19 18:26 42.513065 -124.157722 195 27839ft 361kts
20-May-19 18:27 42.411334 -124.152784 197 28572ft 379kts
20-May-19 18:28 42.301253 -124.151480 197 28831ft 415kts
20-May-19 18:29 42.181823 -124.162960 211 28901ft 424kts
20-May-19 18:30 42.076530 -124.229441 219 30457ft 434kts
20-May-19 18:31 41.952482 -124.233040 196 32843ft 445kts
20-May-19 18:32 41.826761 -124.241173 200 32913ft 472kts
20-May-19 18:33 41.686511 -124.231644 186 32915ft 536kts
20-May-19 18:34 41.535885 -124.207811 189 32914ft 550kts
20-May-19 18:35 41.382302 -124.187378 187 32917ft 559kts
20-May-19 18:36 41.227093 -124.165679 187 32926ft 561kts
20-May-19 18:37 41.074064 -124.144552 188 32926ft 520kts
20-May-19 18:38 40.934583 -124.126467 188 32932ft 498kts
20-May-19 18:39 40.794948 -124.107607 188 32934ft 513kts
20-May-19 18:40 40.650413 -124.087827 187 32939ft 531kts
20-May-19 18:41 40.501693 -124.067925 186 32943ft 538kts
20-May-19 18:42 40.357924 -124.048556 187 32940ft 505kts
20-May-19 18:43 40.221095 -124.030679 188 32940ft 485kts
20-May-19 18:44 40.088798 -124.013385 189 32941ft 467kts
20-May-19 18:45 39.961796 -123.993472 184 32944ft 458kts
20-May-19 18:46 39.837714 -123.960335 183 32948ft 445kts
20-May-19 18:47 39.736890 -123.935722 184 32953ft 432kts
20-May-19 18:48 39.595925 -123.900428 182 31988ft 467kts
20-May-19 18:49 39.463725 -123.866684 181 30213ft 503kts
20-May-19 18:50 39.323526 -123.831613 179 28966ft 521kts
20-May-19 18:51 39.179565 -123.795558 178 27773ft 534kts
20-May-19 18:52 39.032493 -123.758446 174 26571ft 544kts
20-May-19 18:53 38.914011 -123.646930 125 25412ft 509kts
20-May-19 18:54 38.823566 -123.522875 141 24225ft 460kts
20-May-19 18:55 38.732569 -123.408389 135 24010ft 468kts
20-May-19 18:56 38.634524 -123.283843 136 24024ft 526kts
20-May-19 18:57 38.532388 -123.154280 136 24028ft 503kts
20-May-19 18:58 38.435334 -123.031668 136 24042ft 480kts
20-May-19 18:59 38.340108 -122.912435 136 23535ft 494kts
20-May-19 19:00 38.239073 -122.787445 142 22040ft 503kts
20-May-19 19:01 38.120105 -122.734555 178 20281ft 426kts
20-May-19 19:02 38.007877 -122.706037 171 17190ft 400kts
20-May-19 19:03 37.904653 -122.674203 166 14317ft 365kts
20-May-19 19:04 37.828852 -122.598278 134 11735ft 343kts
20-May-19 19:05 37.762223 -122.528059 144 10989ft 286kts
20-May-19 19:06 37.699129 -122.460373 142 11008ft 311kts
20-May-19 19:07 37.629074 -122.389642 149 10443ft 317kts
20-May-19 19:08 37.559980 -122.337908 153 9232ft 270kts
20-May-19 19:09 37.495675 -122.292007 153 7481ft 263kts
20-May-19 19:10 37.444622 -122.230607 114 5688ft 256kts
20-May-19 19:11 37.444790 -122.146207 58 3477ft 261kts
20-May-19 19:12 37.493976 -122.109342 346 2935ft 168kts
20-May-19 19:13 37.526984 -122.154363 299 3043ft 168kts
20-May-19 19:14 37.548518 -122.206581 296 3011ft 175kts
20-May-19 19:15 37.570302 -122.259503 294 2744ft 163kts
20-May-19 19:16 37.589511 -122.302908 291 1475ft 129kts
20-May-19 19:17 37.606048 -122.344684 293 321ft 130kts
20-May-19 19:18 37.619193 -122.376361 299 20ft 26kts
20-May-19 19:19 37.619098 -122.380315 268 20ft 11kts
20-May-19 19:20 37.619153 -122.383087 274 20ft 4kts
20-May-19 19:21 37.619213 -122.383530 279 20ft 0kts
20-May-19 19:22 37.619223 -122.383583 282 20ft 0kts

Navigation Log

Ident Type
Flight plan parsing failed, navigation log unavailable